Time;durP1;ratioP1;P1;durP2;ratioP2;P2;SDS_P1;SDS_P2;PMS_P1;PMS_P2;Temp;Humidity;BMP_temperature;BMP_pressure;BME280_temperature;BME280_humidity;BME280_pressure;Samples;Min_cycle;Max_cycle;Signal;HPM_P1;HPM_P2
2023/02/24 00:01:58;;;;;;;12.50;3.83;;;;;;;;;;5078936;28;20176;-55
2023/02/24 00:04:25;;;;;;;12.47;4.37;;;;;;;;;;5080630;28;20213;-56
2023/02/24 00:06:51;;;;;;;11.53;3.77;;;;;;;;;;5080872;28;20453;-55
2023/02/24 00:09:19;;;;;;;13.07;4.83;;;;;;;;;;5078824;28;20561;-56
2023/02/24 00:11:47;;;;;;;7.43;4.00;;;;;;;;;;5078481;28;20209;-55
2023/02/24 00:14:17;;;;;;;10.37;4.17;;;;;;;;;;5073492;28;20184;-55
2023/02/24 00:16:44;;;;;;;12.83;3.83;;;;;;;;;;5076397;28;20295;-56
2023/02/24 00:19:12;;;;;;;11.27;4.10;;;;;;;;;;5078616;28;20249;-55
2023/02/24 00:21:38;;;;;;;7.97;3.63;;;;;;;;;;5079201;28;20521;-56
2023/02/24 00:24:05;;;;;;;9.10;3.90;;;;;;;;;;5079239;28;20722;-55
2023/02/24 00:26:31;;;;;;;6.67;3.80;;;;;;;;;;5078968;28;20184;-55
2023/02/24 00:29:02;;;;;;;10.53;4.17;;;;;;;;;;5077840;28;20181;-55
2023/02/24 00:31:29;;;;;;;10.07;3.90;;;;;;;;;;5079931;28;20663;-55
2023/02/24 00:33:56;;;;;;;11.77;4.47;;;;;;;;;;5077219;28;20260;-55
2023/02/24 00:36:25;;;;;;;8.57;4.37;;;;;;;;;;5079886;28;20613;-55
2023/02/24 00:38:58;;;;;;;11.43;4.30;;;;;;;;;;5074423;28;20181;-55
2023/02/24 00:41:28;;;;;;;7.67;3.73;;;;;;;;;;5070834;28;20183;-55
2023/02/24 00:43:54;;;;;;;8.60;3.50;;;;;;;;;;5083779;28;20683;-55
2023/02/24 00:46:21;;;;;;;5.83;3.07;;;;;;;;;;5081179;28;20184;-55
2023/02/24 00:48:48;;;;;;;8.53;3.47;;;;;;;;;;5084033;28;20176;-55
2023/02/24 00:51:16;;;;;;;10.93;3.77;;;;;;;;;;5075089;28;20176;-55
2023/02/24 00:53:42;;;;;;;11.67;3.80;;;;;;;;;;5075501;28;20220;-55
2023/02/24 00:56:12;;;;;;;7.37;3.23;;;;;;;;;;5073095;28;20655;-55
2023/02/24 00:58:42;;;;;;;5.40;3.83;;;;;;;;;;5078759;28;20717;-55
2023/02/24 01:01:13;;;;;;;9.03;3.30;;;;;;;;;;5079603;28;20219;-55
2023/02/24 01:03:39;;;;;;;9.43;3.77;;;;;;;;;;5080277;28;20606;-55
2023/02/24 01:06:05;;;;;;;8.10;3.87;;;;;;;;;;5078584;28;20912;-55
2023/02/24 01:08:35;;;;;;;8.50;3.50;;;;;;;;;;5079917;28;20196;-55
2023/02/24 01:13:46;;;;;;;7.93;4.10;;;;;;;;;;5078784;28;20188;-55
2023/02/24 01:16:13;;;;;;;5.33;3.27;;;;;;;;;;5080332;28;20194;-55
2023/02/24 01:18:40;;;;;;;10.97;3.63;;;;;;;;;;5087013;28;20176;-55
2023/02/24 01:21:06;;;;;;;7.57;3.23;;;;;;;;;;5081623;28;20176;-55
2023/02/24 01:23:32;;;;;;;6.97;3.30;;;;;;;;;;5083251;28;20175;-55
2023/02/24 01:25:59;;;;;;;9.27;3.47;;;;;;;;;;5084172;28;20172;-56
2023/02/24 01:28:29;;;;;;;11.30;3.40;;;;;;;;;;5079818;28;20232;-55
2023/02/24 01:30:55;;;;;;;6.37;3.23;;;;;;;;;;5077510;28;20185;-56
2023/02/24 01:33:21;;;;;;;8.63;3.37;;;;;;;;;;5076778;28;20180;-55
2023/02/24 01:35:47;;;;;;;13.67;4.07;;;;;;;;;;5081289;28;20179;-55
2023/02/24 01:38:13;;;;;;;5.70;3.17;;;;;;;;;;5072648;28;20204;-55
2023/02/24 01:40:40;;;;;;;7.27;3.37;;;;;;;;;;5078948;28;20279;-55
2023/02/24 01:43:07;;;;;;;9.67;3.77;;;;;;;;;;5083354;28;20286;-55
2023/02/24 01:45:35;;;;;;;11.43;3.13;;;;;;;;;;5079310;28;20179;-55
2023/02/24 01:48:06;;;;;;;8.23;3.77;;;;;;;;;;5070367;28;20180;-55
2023/02/24 01:50:34;;;;;;;8.23;4.00;;;;;;;;;;5075206;28;20827;-55
2023/02/24 01:53:02;;;;;;;6.77;3.03;;;;;;;;;;5081911;28;20183;-55
2023/02/24 01:55:35;;;;;;;10.33;3.30;;;;;;;;;;5077235;28;20176;-55
2023/02/24 01:58:05;;;;;;;11.67;4.10;;;;;;;;;;5091648;28;20203;-56
2023/02/24 02:00:36;;;;;;;7.60;3.37;;;;;;;;;;5078864;28;20175;-55
2023/02/24 02:03:06;;;;;;;6.20;3.10;;;;;;;;;;5079144;28;20227;-55
2023/02/24 02:05:32;;;;;;;10.93;3.37;;;;;;;;;;5080868;28;20177;-55
2023/02/24 02:07:59;;;;;;;8.47;2.60;;;;;;;;;;5076299;28;20254;-55
2023/02/24 02:10:27;;;;;;;8.87;3.33;;;;;;;;;;5082907;28;20229;-55
2023/02/24 02:12:53;;;;;;;8.00;3.37;;;;;;;;;;5082683;28;20179;-55
2023/02/24 02:15:20;;;;;;;9.53;4.07;;;;;;;;;;5079156;28;20553;-54
2023/02/24 02:17:53;;;;;;;6.17;2.70;;;;;;;;;;5070693;28;20207;-55
2023/02/24 02:20:38;;;;;;;5.20;2.57;;;;;;;;;;5075967;28;20180;-55
2023/02/24 02:23:27;;;;;;;8.53;3.37;;;;;;;;;;5076006;28;20167;-55
2023/02/24 02:26:11;;;;;;;11.33;3.90;;;;;;;;;;5079890;28;20176;-55
2023/02/24 02:28:56;;;;;;;7.33;2.97;;;;;;;;;;5081294;28;20450;-56
2023/02/24 02:31:54;;;;;;;8.13;3.77;;;;;;;;;;5079708;28;20179;-55
2023/02/24 02:34:20;;;;;;;8.43;3.30;;;;;;;;;;5046608;28;20202;-55
2023/02/24 02:36:58;;;;;;;12.43;3.73;;;;;;;;;;5082098;28;20204;-55
2023/02/24 02:39:31;;;;;;;9.63;3.47;;;;;;;;;;5081584;28;20661;-55
2023/02/24 02:42:25;;;;;;;8.57;2.80;;;;;;;;;;5080855;28;20179;-55
2023/02/24 02:44:54;;;;;;;11.50;3.50;;;;;;;;;;5082804;28;20228;-55
2023/02/24 02:47:33;;;;;;;7.53;3.40;;;;;;;;;;5076255;28;20184;-55
2023/02/24 02:50:06;;;;;;;6.70;3.43;;;;;;;;;;5082437;28;20259;-55
2023/02/24 02:52:41;;;;;;;7.17;3.00;;;;;;;;;;5086282;28;20514;-55
2023/02/24 02:55:12;;;;;;;8.83;3.40;;;;;;;;;;5081915;28;20273;-55
2023/02/24 02:57:45;;;;;;;8.23;3.60;;;;;;;;;;5082911;28;20204;-55
2023/02/24 03:00:13;;;;;;;7.63;3.40;;;;;;;;;;5085402;28;20365;-55
2023/02/24 03:02:43;;;;;;;7.07;3.33;;;;;;;;;;5082089;28;20322;-55
2023/02/24 03:05:10;;;;;;;8.77;3.17;;;;;;;;;;5081658;28;20177;-55
2023/02/24 03:07:40;;;;;;;7.90;3.20;;;;;;;;;;5077021;28;20230;-55
2023/02/24 03:10:16;;;;;;;11.13;3.20;;;;;;;;;;5074453;28;20188;-55
2023/02/24 03:12:42;;;;;;;8.37;3.07;;;;;;;;;;5075175;28;20680;-55
2023/02/24 03:15:10;;;;;;;5.23;3.40;;;;;;;;;;5079244;28;20606;-55
2023/02/24 03:17:39;;;;;;;11.80;3.30;;;;;;;;;;5079015;28;20208;-55
2023/02/24 03:20:16;;;;;;;8.60;3.43;;;;;;;;;;5077498;28;20187;-55
2023/02/24 03:22:45;;;;;;;11.03;3.10;;;;;;;;;;5083853;28;20190;-55
2023/02/24 03:25:12;;;;;;;6.73;3.57;;;;;;;;;;5082630;28;20267;-55
2023/02/24 03:27:49;;;;;;;6.03;3.20;;;;;;;;;;5079475;28;20602;-55
2023/02/24 03:30:18;;;;;;;8.70;3.63;;;;;;;;;;5080782;28;20258;-55
2023/02/24 03:33:04;;;;;;;7.50;3.20;;;;;;;;;;5080115;28;20188;-55
2023/02/24 03:35:33;;;;;;;5.87;2.90;;;;;;;;;;5084403;28;20184;-55
2023/02/24 03:37:59;;;;;;;6.77;3.17;;;;;;;;;;5078634;28;20601;-55
2023/02/24 03:40:32;;;;;;;8.40;2.93;;;;;;;;;;5080354;28;20191;-55
2023/02/24 03:43:07;;;;;;;12.13;3.07;;;;;;;;;;5078674;28;20508;-55
2023/02/24 03:45:40;;;;;;;8.00;3.27;;;;;;;;;;5074123;28;20184;-55
2023/02/24 03:48:08;;;;;;;10.73;3.20;;;;;;;;;;5079124;28;20187;-55
2023/02/24 03:50:34;;;;;;;5.40;3.00;;;;;;;;;;5083502;28;20480;-55
2023/02/24 03:53:12;;;;;;;7.97;2.80;;;;;;;;;;5085671;28;20184;-55
2023/02/24 03:55:44;;;;;;;10.03;3.60;;;;;;;;;;5069352;28;20537;-55
2023/02/24 03:58:18;;;;;;;7.93;2.70;;;;;;;;;;5080359;28;20246;-55
2023/02/24 04:00:58;;;;;;;7.13;3.43;;;;;;;;;;5078475;28;20180;-55
2023/02/24 04:03:26;;;;;;;5.83;2.97;;;;;;;;;;5076723;28;20610;-55
2023/02/24 04:06:08;;;;;;;9.70;3.63;;;;;;;;;;5074151;28;20172;-55
2023/02/24 04:08:39;;;;;;;4.60;2.70;;;;;;;;;;5077590;28;20635;-55
2023/02/24 04:11:16;;;;;;;7.90;2.87;;;;;;;;;;5080331;28;20196;-55
2023/02/24 04:13:51;;;;;;;7.30;3.10;;;;;;;;;;5071104;28;20236;-55
2023/02/24 04:16:35;;;;;;;5.97;3.37;;;;;;;;;;5084262;28;20234;-56
2023/02/24 04:19:03;;;;;;;5.43;2.63;;;;;;;;;;5078533;28;20537;-55
2023/02/24 04:21:31;;;;;;;5.37;3.03;;;;;;;;;;5075828;28;20205;-55
2023/02/24 04:23:59;;;;;;;7.33;2.63;;;;;;;;;;5080592;28;20184;-55
2023/02/24 04:26:26;;;;;;;6.83;3.00;;;;;;;;;;5081659;28;20534;-55
2023/02/24 04:28:52;;;;;;;13.87;3.20;;;;;;;;;;5079730;28;20237;-55
2023/02/24 04:31:19;;;;;;;6.77;2.90;;;;;;;;;;5082401;28;20176;-55
2023/02/24 04:33:49;;;;;;;5.00;3.27;;;;;;;;;;5079477;28;20183;-55
2023/02/24 04:36:15;;;;;;;7.90;3.20;;;;;;;;;;5080546;28;20266;-55
2023/02/24 04:38:41;;;;;;;8.80;3.33;;;;;;;;;;5078113;28;20317;-55
2023/02/24 04:41:07;;;;;;;9.80;3.50;;;;;;;;;;5083406;28;20194;-55
2023/02/24 04:43:34;;;;;;;8.93;3.53;;;;;;;;;;5084499;28;20188;-55
2023/02/24 04:46:06;;;;;;;6.97;3.23;;;;;;;;;;5078119;28;20449;-55
2023/02/24 04:48:32;;;;;;;8.13;3.33;;;;;;;;;;5081849;28;20172;-55
2023/02/24 04:51:05;;;;;;;7.30;2.77;;;;;;;;;;5081250;28;20183;-55
2023/02/24 04:53:31;;;;;;;6.30;3.10;;;;;;;;;;5076305;28;20567;-55
2023/02/24 04:56:06;;;;;;;9.93;3.20;;;;;;;;;;5086334;28;20287;-55
2023/02/24 04:58:32;;;;;;;7.07;3.23;;;;;;;;;;5085450;28;20271;-55
2023/02/24 05:00:59;;;;;;;7.17;2.33;;;;;;;;;;5085563;28;20194;-57
2023/02/24 05:03:28;;;;;;;7.97;2.97;;;;;;;;;;5076549;28;20218;-55
2023/02/24 05:06:01;;;;;;;6.33;2.80;;;;;;;;;;5079194;28;20189;-55
2023/02/24 05:08:28;;;;;;;7.17;3.07;;;;;;;;;;5084946;28;20203;-55
2023/02/24 05:10:59;;;;;;;6.37;2.83;;;;;;;;;;5080339;28;20674;-55
2023/02/24 05:13:30;;;;;;;6.43;2.50;;;;;;;;;;5079439;28;20184;-55
2023/02/24 05:15:57;;;;;;;7.97;2.80;;;;;;;;;;5075321;28;20180;-55
2023/02/24 05:18:23;;;;;;;4.87;2.83;;;;;;;;;;5078996;28;20215;-55
2023/02/24 05:23:43;;;;;;;11.13;2.93;;;;;;;;;;5078091;28;20631;-55
2023/02/24 05:26:09;;;;;;;5.63;2.63;;;;;;;;;;5083611;28;20180;-55
2023/02/24 05:28:39;;;;;;;4.83;2.40;;;;;;;;;;5085293;28;20187;-55
2023/02/24 05:31:09;;;;;;;8.63;2.40;;;;;;;;;;5081211;28;20186;-55
2023/02/24 05:33:36;;;;;;;6.50;2.83;;;;;;;;;;5081803;28;20190;-55
2023/02/24 05:36:07;;;;;;;6.30;2.60;;;;;;;;;;5077547;28;20172;-55
2023/02/24 05:38:36;;;;;;;7.10;2.60;;;;;;;;;;5079020;28;20188;-55
2023/02/24 05:41:15;;;;;;;4.90;2.73;;;;;;;;;;5078844;28;20304;-55
2023/02/24 05:43:46;;;;;;;7.17;2.50;;;;;;;;;;5082894;28;20718;-55
2023/02/24 05:46:13;;;;;;;6.67;3.30;;;;;;;;;;5075494;28;20272;-55
2023/02/24 05:48:39;;;;;;;5.90;2.70;;;;;;;;;;5082823;28;20175;-55
2023/02/24 05:51:07;;;;;;;8.73;3.30;;;;;;;;;;5080264;28;20192;-55
2023/02/24 05:53:33;;;;;;;3.97;2.30;;;;;;;;;;5077400;28;20707;-55
2023/02/24 05:56:06;;;;;;;7.47;2.50;;;;;;;;;;5078273;28;20265;-55
2023/02/24 05:58:32;;;;;;;4.97;2.20;;;;;;;;;;5082375;28;20176;-55
2023/02/24 06:01:05;;;;;;;7.67;2.70;;;;;;;;;;5080761;28;20207;-55
2023/02/24 06:03:34;;;;;;;5.77;2.47;;;;;;;;;;5083078;28;20582;-55
2023/02/24 06:06:04;;;;;;;4.73;2.23;;;;;;;;;;5078971;28;20195;-55
2023/02/24 06:08:40;;;;;;;8.03;3.13;;;;;;;;;;5083733;28;20216;-55
2023/02/24 06:11:07;;;;;;;5.33;2.33;;;;;;;;;;5081668;28;20203;-55
2023/02/24 06:13:33;;;;;;;3.67;2.37;;;;;;;;;;5077755;28;20184;-55
2023/02/24 06:15:59;;;;;;;8.23;2.53;;;;;;;;;;5081731;28;20179;-55
2023/02/24 06:18:25;;;;;;;7.43;2.53;;;;;;;;;;5073771;28;20204;-55
2023/02/24 06:20:52;;;;;;;3.77;2.97;;;;;;;;;;5079864;28;20184;-55
2023/02/24 06:23:18;;;;;;;4.87;2.63;;;;;;;;;;5079689;28;20361;-55
2023/02/24 06:25:44;;;;;;;6.87;2.57;;;;;;;;;;5084082;28;20579;-55
2023/02/24 06:28:11;;;;;;;7.97;2.93;;;;;;;;;;5074686;28;20318;-55
2023/02/24 06:30:37;;;;;;;8.37;2.90;;;;;;;;;;5076858;28;20582;-56
2023/02/24 06:33:04;;;;;;;11.00;3.00;;;;;;;;;;5079699;28;20572;-55
2023/02/24 06:35:31;;;;;;;7.63;3.13;;;;;;;;;;5078893;28;20189;-55
2023/02/24 06:37:57;;;;;;;6.00;2.43;;;;;;;;;;5080552;28;20667;-55
2023/02/24 06:40:24;;;;;;;9.27;3.13;;;;;;;;;;5081551;28;20179;-55
2023/02/24 06:42:54;;;;;;;7.70;3.00;;;;;;;;;;5082094;28;20663;-55
2023/02/24 06:45:21;;;;;;;3.50;2.70;;;;;;;;;;5079760;28;20630;-55
2023/02/24 06:47:47;;;;;;;5.33;3.03;;;;;;;;;;5077153;28;20730;-55
2023/02/24 06:50:14;;;;;;;10.90;3.33;;;;;;;;;;5078975;28;20183;-55
2023/02/24 06:52:42;;;;;;;7.80;3.63;;;;;;;;;;5077316;28;20199;-54
2023/02/24 06:55:24;;;;;;;11.87;3.20;;;;;;;;;;5076054;28;20184;-55
2023/02/24 06:58:03;;;;;;;5.83;2.70;;;;;;;;;;5071827;28;20207;-55
2023/02/24 07:00:35;;;;;;;6.13;2.90;;;;;;;;;;5080062;28;20183;-55
2023/02/24 07:03:15;;;;;;;4.10;2.40;;;;;;;;;;5078731;28;20272;-54
2023/02/24 07:06:09;;;;;;;5.67;2.93;;;;;;;;;;5079590;28;20184;-55
2023/02/24 07:08:36;;;;;;;7.27;2.87;;;;;;;;;;5076831;28;20718;-54
2023/02/24 07:11:05;;;;;;;6.60;2.70;;;;;;;;;;5074649;28;20611;-54
2023/02/24 07:13:31;;;;;;;5.17;2.77;;;;;;;;;;5074959;28;20210;-54
2023/02/24 07:16:02;;;;;;;3.43;2.10;;;;;;;;;;5079978;28;20563;-53
2023/02/24 07:18:29;;;;;;;7.57;2.73;;;;;;;;;;5078165;28;20253;-54
2023/02/24 07:21:03;;;;;;;8.60;2.73;;;;;;;;;;5082077;28;20174;-54
2023/02/24 07:23:30;;;;;;;5.97;2.43;;;;;;;;;;5079902;28;20211;-54
2023/02/24 07:25:57;;;;;;;5.90;2.33;;;;;;;;;;5080347;28;20185;-54
2023/02/24 07:28:24;;;;;;;4.40;2.33;;;;;;;;;;5076870;28;20699;-54
2023/02/24 07:30:51;;;;;;;6.73;3.07;;;;;;;;;;5075551;28;20645;-54
2023/02/24 07:33:18;;;;;;;6.53;3.03;;;;;;;;;;5075068;28;20184;-54
2023/02/24 07:35:49;;;;;;;8.17;2.83;;;;;;;;;;5078229;28;20689;-54
2023/02/24 07:38:18;;;;;;;9.23;3.03;;;;;;;;;;5080899;28;20682;-54
2023/02/24 07:40:46;;;;;;;3.73;2.97;;;;;;;;;;5078215;28;20177;-54
2023/02/24 07:43:14;;;;;;;5.27;2.37;;;;;;;;;;5079476;28;20183;-54
2023/02/24 07:45:40;;;;;;;5.13;2.80;;;;;;;;;;5073608;28;20188;-54
2023/02/24 07:48:06;;;;;;;4.77;3.20;;;;;;;;;;5081077;28;20184;-54
2023/02/24 07:50:33;;;;;;;7.83;3.23;;;;;;;;;;5076368;28;20291;-54
2023/02/24 07:53:03;;;;;;;6.13;3.30;;;;;;;;;;5079495;28;20322;-54
2023/02/24 07:55:30;;;;;;;5.93;3.50;;;;;;;;;;5078705;28;20180;-55
2023/02/24 07:57:56;;;;;;;3.73;2.73;;;;;;;;;;5076079;28;20600;-54
2023/02/24 08:00:27;;;;;;;3.63;2.73;;;;;;;;;;5079588;28;20600;-54
2023/02/24 08:02:54;;;;;;;10.53;3.47;;;;;;;;;;5078396;28;20223;-54
2023/02/24 08:05:24;;;;;;;6.23;2.73;;;;;;;;;;5076430;28;20179;-54
2023/02/24 08:07:51;;;;;;;4.03;2.90;;;;;;;;;;5074404;28;20188;-54
2023/02/24 08:10:23;;;;;;;8.90;3.73;;;;;;;;;;5086246;28;20179;-54
2023/02/24 08:12:53;;;;;;;7.50;3.70;;;;;;;;;;5070501;28;20199;-54
2023/02/24 08:15:23;;;;;;;7.60;2.80;;;;;;;;;;5082505;28;20182;-54
2023/02/24 08:17:49;;;;;;;5.60;2.70;;;;;;;;;;5076491;28;20822;-53
2023/02/24 08:22:45;;;;;;;4.17;2.63;;;;;;;;;;5081693;28;20250;-54
2023/02/24 08:25:17;;;;;;;7.27;2.63;;;;;;;;;;5084358;28;20262;-54
2023/02/24 08:27:44;;;;;;;4.43;2.80;;;;;;;;;;5079800;28;20183;-54
2023/02/24 08:30:22;;;;;;;7.23;2.93;;;;;;;;;;5065363;28;20588;-54
2023/02/24 08:32:55;;;;;;;6.87;2.73;;;;;;;;;;5086304;28;20591;-54
2023/02/24 08:35:22;;;;;;;8.53;2.80;;;;;;;;;;5082528;28;20188;-54
2023/02/24 08:37:49;;;;;;;4.60;2.60;;;;;;;;;;5078139;28;20196;-54
2023/02/24 08:43:14;;;;;;;6.00;4.07;;;;;;;;;;5079431;28;20363;-54
2023/02/24 08:45:43;;;;;;;7.23;2.73;;;;;;;;;;5068976;28;20601;-53
2023/02/24 08:48:17;;;;;;;5.00;2.90;;;;;;;;;;5079172;28;20588;-53
2023/02/24 08:50:47;;;;;;;5.53;2.97;;;;;;;;;;5081564;28;20177;-54
2023/02/24 08:53:17;;;;;;;9.03;2.90;;;;;;;;;;5075470;28;20184;-53
2023/02/24 08:55:44;;;;;;;4.37;2.80;;;;;;;;;;5076859;28;20207;-54
2023/02/24 08:58:17;;;;;;;5.07;3.00;;;;;;;;;;5079753;28;20655;-54
2023/02/24 09:00:52;;;;;;;6.43;3.07;;;;;;;;;;5080308;28;20181;-55
2023/02/24 09:03:28;;;;;;;8.83;3.00;;;;;;;;;;5077286;28;20335;-53
2023/02/24 09:06:04;;;;;;;6.57;3.10;;;;;;;;;;5082047;28;20222;-54
2023/02/24 09:08:38;;;;;;;7.93;3.30;;;;;;;;;;5084591;28;20253;-54
2023/02/24 09:11:06;;;;;;;8.43;3.67;;;;;;;;;;5076184;28;20208;-54
2023/02/24 09:13:56;;;;;;;9.27;2.83;;;;;;;;;;5083695;28;20176;-53
2023/02/24 09:16:23;;;;;;;9.30;3.03;;;;;;;;;;5088097;28;20184;-54
2023/02/24 09:24:25;;;;;;;7.07;3.27;;;;;;;;;;5081367;28;20184;-54
2023/02/24 09:26:57;;;;;;;3.47;2.63;;;;;;;;;;5071101;28;20222;-54
2023/02/24 09:29:32;;;;;;;10.17;3.47;;;;;;;;;;5081429;28;20183;-54
2023/02/24 09:32:06;;;;;;;6.10;2.90;;;;;;;;;;5080663;28;20654;-54
2023/02/24 09:34:37;;;;;;;4.43;3.17;;;;;;;;;;5061070;28;20188;-54
2023/02/24 09:37:03;;;;;;;4.87;3.13;;;;;;;;;;5074396;28;20203;-53
2023/02/24 09:39:57;;;;;;;3.33;2.50;;;;;;;;;;5084476;28;20259;-53
2023/02/24 09:44:47;;;;;;;5.57;2.80;;;;;;;;;;5073787;28;20185;-54
2023/02/24 09:50:13;;;;;;;5.27;3.07;;;;;;;;;;5082108;28;20199;-54
2023/02/24 09:52:40;;;;;;;9.27;3.13;;;;;;;;;;5077862;28;20190;-54
2023/02/24 09:55:24;;;;;;;6.77;2.43;;;;;;;;;;5079641;28;20230;-53
2023/02/24 10:00:47;;;;;;;5.43;2.97;;;;;;;;;;5078987;28;20179;-54
2023/02/24 10:03:40;;;;;;;3.43;2.23;;;;;;;;;;5070657;28;20222;-53
2023/02/24 10:06:13;;;;;;;5.47;2.67;;;;;;;;;;5079037;28;20168;-53
2023/02/24 10:08:44;;;;;;;4.60;2.20;;;;;;;;;;5084931;28;20291;-53
2023/02/24 10:11:11;;;;;;;3.70;2.40;;;;;;;;;;5079339;28;20205;-53
2023/02/24 10:13:57;;;;;;;3.43;2.67;;;;;;;;;;5079999;28;20710;-53
2023/02/24 10:16:23;;;;;;;3.87;2.70;;;;;;;;;;5070848;28;20272;-53
2023/02/24 10:19:10;;;;;;;4.47;2.57;;;;;;;;;;5073418;28;20176;-53
2023/02/24 10:21:48;;;;;;;3.77;2.27;;;;;;;;;;5075942;28;20187;-54
2023/02/24 10:24:21;;;;;;;4.73;2.90;;;;;;;;;;5085347;28;20187;-53
2023/02/24 10:26:52;;;;;;;7.87;3.00;;;;;;;;;;5076610;28;20188;-54
2023/02/24 10:29:54;;;;;;;7.10;3.03;;;;;;;;;;5079908;28;20614;-53
2023/02/24 10:32:22;;;;;;;5.43;2.53;;;;;;;;;;5033087;28;20201;-53
2023/02/24 10:34:52;;;;;;;6.23;2.70;;;;;;;;;;5075657;28;20207;-53
2023/02/24 10:37:24;;;;;;;8.27;3.17;;;;;;;;;;5074906;28;20671;-53
2023/02/24 10:39:50;;;;;;;8.17;3.27;;;;;;;;;;5075775;28;20184;-53
2023/02/24 10:42:24;;;;;;;8.23;3.30;;;;;;;;;;5078882;28;21078;-53
2023/02/24 10:44:50;;;;;;;5.90;2.87;;;;;;;;;;5079377;28;20544;-54
2023/02/24 10:47:18;;;;;;;5.87;3.30;;;;;;;;;;5076335;28;20192;-54
2023/02/24 10:49:57;;;;;;;5.30;2.90;;;;;;;;;;5075531;28;20237;-54
2023/02/24 10:52:49;;;;;;;4.63;3.03;;;;;;;;;;5072749;28;20203;-54
2023/02/24 10:55:27;;;;;;;5.57;2.53;;;;;;;;;;5079437;28;20192;-53
2023/02/24 10:58:14;;;;;;;5.50;3.13;;;;;;;;;;5073598;28;20191;-53
2023/02/24 11:03:40;;;;;;;8.63;3.73;;;;;;;;;;5041204;28;20212;-53
2023/02/24 11:06:40;;;;;;;5.10;3.30;;;;;;;;;;5082793;28;20247;-52
2023/02/24 11:17:55;;;;;;;5.80;3.20;;;;;;;;;;5070028;28;20219;-52
2023/02/24 11:20:28;;;;;;;5.97;3.33;;;;;;;;;;5073061;28;20180;-52
2023/02/24 11:22:57;;;;;;;6.57;3.37;;;;;;;;;;5074151;28;20176;-52
2023/02/24 11:25:44;;;;;;;4.13;3.17;;;;;;;;;;5073841;28;20623;-52
2023/02/24 11:28:23;;;;;;;6.43;3.33;;;;;;;;;;5072168;28;20683;-52
2023/02/24 11:30:56;;;;;;;5.03;3.60;;;;;;;;;;5071941;28;20198;-52
2023/02/24 11:33:42;;;;;;;5.10;3.17;;;;;;;;;;5072929;28;20171;-52
2023/02/24 11:36:27;;;;;;;4.47;3.17;;;;;;;;;;5073375;28;20178;-52
2023/02/24 11:38:55;;;;;;;5.37;2.87;;;;;;;;;;5077603;28;20236;-52
2023/02/24 11:41:32;;;;;;;5.13;3.43;;;;;;;;;;5072520;28;20538;-54
2023/02/24 11:44:18;;;;;;;6.57;3.33;;;;;;;;;;5078035;28;20634;-52
2023/02/24 11:46:47;;;;;;;5.90;3.10;;;;;;;;;;5070564;28;20259;-52
2023/02/24 11:49:25;;;;;;;5.60;2.90;;;;;;;;;;5070283;28;20637;-52
2023/02/24 11:51:52;;;;;;;5.90;3.00;;;;;;;;;;5078143;28;20180;-52
2023/02/24 11:54:18;;;;;;;6.57;3.93;;;;;;;;;;5077428;28;20169;-52
2023/02/24 11:56:44;;;;;;;4.77;3.03;;;;;;;;;;5082869;28;20187;-52
2023/02/24 11:59:14;;;;;;;4.00;3.13;;;;;;;;;;5074881;28;20453;-52
2023/02/24 12:01:53;;;;;;;9.10;3.73;;;;;;;;;;5071313;28;20176;-52
2023/02/24 12:04:38;;;;;;;7.10;3.63;;;;;;;;;;5069054;28;20177;-52
2023/02/24 12:07:06;;;;;;;8.33;3.80;;;;;;;;;;5077657;28;20172;-52
2023/02/24 12:09:36;;;;;;;7.00;3.60;;;;;;;;;;5066649;28;20207;-52
2023/02/24 12:12:02;;;;;;;6.90;3.77;;;;;;;;;;5076253;28;20200;-52
2023/02/24 12:14:31;;;;;;;7.93;3.10;;;;;;;;;;5072530;28;20272;-52
2023/02/24 12:17:06;;;;;;;4.23;3.00;;;;;;;;;;5075473;28;20547;-52
2023/02/24 12:19:41;;;;;;;7.20;4.17;;;;;;;;;;5069015;28;20172;-52
2023/02/24 12:22:13;;;;;;;4.87;3.20;;;;;;;;;;5074653;28;20159;-52
2023/02/24 12:24:40;;;;;;;3.13;2.67;;;;;;;;;;5076148;28;20183;-52
2023/02/24 12:27:26;;;;;;;7.13;3.77;;;;;;;;;;5071814;28;20541;-52
2023/02/24 12:30:04;;;;;;;7.40;3.13;;;;;;;;;;5078355;28;20588;-52
2023/02/24 12:32:41;;;;;;;8.37;3.40;;;;;;;;;;5076135;28;20200;-52
2023/02/24 12:35:23;;;;;;;6.17;3.37;;;;;;;;;;5073621;28;20242;-52
2023/02/24 12:37:49;;;;;;;7.90;3.80;;;;;;;;;;5068124;28;20255;-52
2023/02/24 12:40:21;;;;;;;6.30;3.50;;;;;;;;;;5075861;28;20172;-52
2023/02/24 12:43:06;;;;;;;6.23;3.40;;;;;;;;;;5075595;28;20622;-52
2023/02/24 12:45:39;;;;;;;4.80;3.23;;;;;;;;;;5073454;28;20222;-52
2023/02/24 12:48:08;;;;;;;5.80;3.57;;;;;;;;;;5070119;28;20181;-52
2023/02/24 12:50:47;;;;;;;6.47;4.07;;;;;;;;;;5075591;28;20189;-52
2023/02/24 12:53:36;;;;;;;6.03;3.20;;;;;;;;;;5074356;28;20172;-52
2023/02/24 12:56:05;;;;;;;5.60;3.60;;;;;;;;;;5081805;28;20190;-52
2023/02/24 12:58:36;;;;;;;5.03;3.50;;;;;;;;;;5078162;28;20668;-52
2023/02/24 13:01:18;;;;;;;3.77;3.37;;;;;;;;;;5080400;28;20183;-52
2023/02/24 13:03:44;;;;;;;7.60;4.03;;;;;;;;;;5078440;28;20699;-52
2023/02/24 13:06:13;;;;;;;7.83;4.03;;;;;;;;;;5077931;28;20181;-52
2023/02/24 13:08:57;;;;;;;7.03;5.90;;;;;;;;;;5084214;28;20508;-52
2023/02/24 13:11:38;;;;;;;9.57;6.17;;;;;;;;;;5084951;28;20690;-52
2023/02/24 13:14:22;;;;;;;11.07;6.20;;;;;;;;;;5078104;28;20232;-52
2023/02/24 13:16:48;;;;;;;10.80;6.57;;;;;;;;;;5074861;28;20212;-52
2023/02/24 13:19:21;;;;;;;12.83;5.43;;;;;;;;;;5075786;28;20184;-52
2023/02/24 13:22:07;;;;;;;9.73;5.80;;;;;;;;;;5082680;28;20573;-52
2023/02/24 13:24:34;;;;;;;6.93;5.40;;;;;;;;;;5079435;28;20172;-52
2023/02/24 13:27:13;;;;;;;12.03;6.23;;;;;;;;;;5076802;28;20183;-52
2023/02/24 13:29:47;;;;;;;7.63;5.47;;;;;;;;;;5084669;28;20191;-52
2023/02/24 13:32:32;;;;;;;12.87;6.47;;;;;;;;;;5075111;28;20666;-52
2023/02/24 13:35:21;;;;;;;8.03;5.17;;;;;;;;;;5079322;28;20188;-52
2023/02/24 13:37:47;;;;;;;10.13;5.30;;;;;;;;;;5059091;28;20651;-52
2023/02/24 13:40:16;;;;;;;9.77;4.87;;;;;;;;;;5077307;28;20183;-52
2023/02/24 13:43:03;;;;;;;9.23;4.87;;;;;;;;;;5075726;28;20774;-52
2023/02/24 13:45:38;;;;;;;5.37;4.33;;;;;;;;;;5078428;28;20263;-52
2023/02/24 13:48:10;;;;;;;9.17;4.93;;;;;;;;;;5080448;28;20634;-52
2023/02/24 13:50:51;;;;;;;11.73;5.30;;;;;;;;;;5078034;28;20175;-52
2023/02/24 13:53:24;;;;;;;8.40;5.00;;;;;;;;;;5078103;28;20432;-52
2023/02/24 13:55:57;;;;;;;7.83;5.27;;;;;;;;;;5082279;28;20199;-52
2023/02/24 13:58:30;;;;;;;5.67;4.70;;;;;;;;;;5086115;28;20295;-52
2023/02/24 14:01:02;;;;;;;6.37;5.60;;;;;;;;;;5078934;28;20243;-52
2023/02/24 14:03:28;;;;;;;12.40;5.80;;;;;;;;;;5085327;28;20250;-52
2023/02/24 14:05:57;;;;;;;12.30;6.17;;;;;;;;;;5082084;28;20176;-52
2023/02/24 14:08:44;;;;;;;9.77;6.37;;;;;;;;;;5084229;28;20240;-52
2023/02/24 14:11:13;;;;;;;6.70;5.40;;;;;;;;;;5063657;28;20208;-52
2023/02/24 14:13:39;;;;;;;8.43;6.13;;;;;;;;;;5073815;28;20550;-52
2023/02/24 14:16:09;;;;;;;6.40;5.70;;;;;;;;;;5078087;28;20222;-52
2023/02/24 14:18:36;;;;;;;8.97;6.57;;;;;;;;;;5076659;28;20208;-52
2023/02/24 14:21:02;;;;;;;7.17;5.60;;;;;;;;;;5084105;28;20207;-51
2023/02/24 14:23:28;;;;;;;8.40;5.97;;;;;;;;;;5089131;28;20666;-51
2023/02/24 14:25:58;;;;;;;7.90;5.80;;;;;;;;;;5081865;28;20187;-51
2023/02/24 14:28:28;;;;;;;8.03;5.40;;;;;;;;;;5078603;28;20183;-52
2023/02/24 14:30:57;;;;;;;8.17;5.70;;;;;;;;;;5076701;28;21892;-51
2023/02/24 14:33:29;;;;;;;9.43;5.73;;;;;;;;;;5068535;28;20692;-52
2023/02/24 14:35:56;;;;;;;7.33;6.13;;;;;;;;;;5082044;28;20176;-52
2023/02/24 14:38:36;;;;;;;5.77;5.27;;;;;;;;;;5084710;28;20203;-52
2023/02/24 14:41:04;;;;;;;10.13;7.03;;;;;;;;;;5079301;28;20172;-51
2023/02/24 14:43:30;;;;;;;8.67;6.00;;;;;;;;;;5083742;28;20262;-52
2023/02/24 14:45:56;;;;;;;9.70;7.03;;;;;;;;;;5079131;28;20218;-52
2023/02/24 14:48:30;;;;;;;7.47;5.17;;;;;;;;;;5075424;28;20182;-51
2023/02/24 14:51:02;;;;;;;7.00;5.90;;;;;;;;;;5075035;28;20175;-51
2023/02/24 14:53:28;;;;;;;11.67;6.27;;;;;;;;;;5086578;28;20179;-52
2023/02/24 14:55:55;;;;;;;6.50;5.80;;;;;;;;;;5081642;28;20706;-51
2023/02/24 14:58:24;;;;;;;9.10;6.07;;;;;;;;;;5082372;28;21056;-51
2023/02/24 15:00:56;;;;;;;6.97;6.27;;;;;;;;;;5087256;28;20171;-52
2023/02/24 15:03:45;;;;;;;7.53;5.87;;;;;;;;;;5074733;28;20220;-51
2023/02/24 15:06:25;;;;;;;7.77;5.23;;;;;;;;;;5074128;28;20536;-52
2023/02/24 15:08:57;;;;;;;6.90;5.47;;;;;;;;;;5072511;28;20211;-50
2023/02/24 15:11:28;;;;;;;8.17;5.90;;;;;;;;;;5077510;28;20207;-51
2023/02/24 15:13:55;;;;;;;8.30;5.70;;;;;;;;;;5083780;28;20651;-52
2023/02/24 15:16:21;;;;;;;6.77;5.60;;;;;;;;;;5075401;28;20501;-51
2023/02/24 15:18:51;;;;;;;7.07;5.90;;;;;;;;;;5084457;28;20271;-51
2023/02/24 15:21:22;;;;;;;8.97;5.97;;;;;;;;;;5081741;28;20180;-51
2023/02/24 15:23:48;;;;;;;6.37;5.70;;;;;;;;;;5074111;28;20670;-51
2023/02/24 15:26:28;;;;;;;6.60;6.00;;;;;;;;;;5083781;28;20180;-51
2023/02/24 15:28:58;;;;;;;6.93;6.07;;;;;;;;;;5084897;28;20535;-51
2023/02/24 15:31:26;;;;;;;11.10;5.70;;;;;;;;;;5086025;28;20180;-51
2023/02/24 15:33:54;;;;;;;8.37;5.67;;;;;;;;;;5077067;28;20237;-51
2023/02/24 15:36:23;;;;;;;7.87;6.07;;;;;;;;;;5082013;28;20175;-52
2023/02/24 15:38:53;;;;;;;10.20;5.50;;;;;;;;;;5086360;28;20203;-51
2023/02/24 15:41:20;;;;;;;8.40;6.03;;;;;;;;;;5089931;28;20235;-51
2023/02/24 15:43:48;;;;;;;7.00;5.47;;;;;;;;;;5078331;28;20610;-51